TimeEST,TemperatureF,Dew PointF,Humidity,Sea Level PressureIn,VisibilityMPH,Wind Direction,Wind SpeedMPH,Gust SpeedMPH,PrecipitationIn,Events,Conditions,WindDirDegrees,DateUTC
12:53 AM,39.9,34.0,79,29.90,10.0,NE,11.5,-,N/A,,Overcast,40,2013-11-03 04:53:00
1:53 AM,39.0,32.0,76,29.94,10.0,NE,13.8,-,N/A,,Overcast,40,2013-11-03 05:53:00
1:30 AM,37.4,30.2,75,29.93,10.0,North,17.3,24.2,N/A,,Overcast,10,2013-11-03 06:30:00
1:53 AM,37.9,28.9,70,29.96,10.0,North,18.4,23.0,N/A,,Overcast,10,2013-11-03 06:53:00
2:05 AM,37.4,28.4,70,29.95,10.0,NNE,11.5,21.9,N/A,,Overcast,20,2013-11-03 07:05:00
2:53 AM,36.0,28.0,73,29.99,10.0,NNE,8.1,-,N/A,,Overcast,20,2013-11-03 07:53:00
3:53 AM,35.1,25.0,67,30.03,10.0,NNE,13.8,-,N/A,,Overcast,30,2013-11-03 08:53:00
4:53 AM,35.1,24.1,64,30.08,10.0,NNE,10.4,-,N/A,,Overcast,30,2013-11-03 09:53:00
5:53 AM,34.0,21.9,61,30.11,10.0,NE,8.1,-,N/A,,Overcast,40,2013-11-03 10:53:00
6:53 AM,34.0,21.9,61,30.15,10.0,NE,8.1,-,N/A,,Overcast,40,2013-11-03 11:53:00
7:53 AM,34.0,21.0,59,30.19,10.0,North,10.4,-,N/A,,Overcast,10,2013-11-03 12:53:00
8:53 AM,36.0,19.9,52,30.21,10.0,North,12.7,-,N/A,,Overcast,360,2013-11-03 13:53:00
9:53 AM,36.0,19.9,52,30.23,10.0,NE,9.2,-,N/A,,Partly Cloudy,40,2013-11-03 14:53:00
10:53 AM,37.0,21.0,52,30.24,10.0,NNE,10.4,-,N/A,,Clear,20,2013-11-03 15:53:00
11:53 AM,37.9,21.0,51,30.24,10.0,ENE,15.0,-,N/A,,Partly Cloudy,60,2013-11-03 16:53:00
12:53 PM,39.9,18.0,41,30.25,10.0,NE,12.7,18.4,N/A,,Clear,50,2013-11-03 17:53:00
1:53 PM,39.0,19.0,45,30.26,10.0,NE,8.1,-,N/A,,Clear,40,2013-11-03 18:53:00
2:53 PM,39.0,18.0,43,30.28,10.0,NE,11.5,-,N/A,,Clear,50,2013-11-03 19:53:00
3:53 PM,37.0,17.1,44,30.32,10.0,ENE,12.7,-,N/A,,Clear,60,2013-11-03 20:53:00
4:53 PM,35.1,16.0,46,30.34,10.0,NE,10.4,-,N/A,,Clear,40,2013-11-03 21:53:00
5:53 PM,33.1,16.0,50,30.38,10.0,NNE,8.1,-,N/A,,Clear,30,2013-11-03 22:53:00
6:53 PM,32.0,16.0,52,30.43,10.0,NE,4.6,-,N/A,,Clear,50,2013-11-03 23:53:00
7:53 PM,28.0,17.1,63,30.45,10.0,NW,3.5,-,N/A,,Clear,320,2013-11-04 00:53:00
8:53 PM,25.0,18.0,75,30.47,10.0,Calm,Calm,-,N/A,,Clear,0,2013-11-04 01:53:00
9:53 PM,25.0,18.0,75,30.49,10.0,Calm,Calm,-,N/A,,Clear,0,2013-11-04 02:53:00
10:53 PM,24.1,18.0,77,30.49,10.0,Calm,Calm,-,N/A,,Clear,0,2013-11-04 03:53:00